VTD146 UATE-UTAK
Flight info
| Callsign | VTD146 |
|---|---|
| Flight time | 1h 30m |
| Altitude | 13000 |
| Route | LUMUR Z581 KERUL A240 TABAB |
| Aircraft | DA42/L-SDEFGRY/C |
Departure
| Time | 2026-04-18 08:57 |
|---|---|
| Airport | Aktau International Airport (UATE) |
Arrival
| Time | 2026-04-18 10:28 |
|---|---|
| Airport | Turkmenbaşy International Airport (UTAK) |
| Time | Latitude | Longitude | Altitude | Speed | Heading |
|---|---|---|---|---|---|
| 2026-04-18 08:35 | 43.85697 | 51.09169 | 68 ft | 0 kts | 33° |
| 2026-04-18 08:51 | 43.85698 | 51.09169 | 68 ft | 0 kts | 37° |
| 2026-04-18 08:51 | 43.85687 | 51.09160 | 64 ft | 5 kts | 205° |
| 2026-04-18 08:52 | 43.85662 | 51.09109 | 65 ft | 6 kts | 293° |
| 2026-04-18 08:52 | 43.85694 | 51.09034 | 68 ft | 13 kts | 302° |
| 2026-04-18 08:52 | 43.85751 | 51.08911 | 68 ft | 14 kts | 304° |
| 2026-04-18 08:52 | 43.85822 | 51.08915 | 68 ft | 15 kts | 33° |
| 2026-04-18 08:53 | 43.85902 | 51.08985 | 68 ft | 10 kts | 35° |
| 2026-04-18 08:53 | 43.85913 | 51.08995 | 68 ft | 0 kts | 33° |
| 2026-04-18 08:55 | 43.85949 | 51.09028 | 68 ft | 15 kts | 34° |
| 2026-04-18 08:56 | 43.85991 | 51.09119 | 69 ft | 9 kts | 110° |
| 2026-04-18 08:56 | 43.85984 | 51.09139 | 69 ft | 0 kts | 123° |
| 2026-04-18 08:56 | 43.85954 | 51.09202 | 69 ft | 33 kts | 122° |
| 2026-04-18 08:57 | 43.85422 | 51.10366 | 319 ft | 87 kts | 123° |
| 2026-04-18 08:57 | 43.85078 | 51.11066 | 625 ft | 87 kts | 127° |
| 2026-04-18 08:57 | 43.84742 | 51.11757 | 963 ft | 83 kts | 130° |
| 2026-04-18 08:58 | 43.84426 | 51.12422 | 1342 ft | 83 kts | 130° |
| 2026-04-18 08:58 | 43.84110 | 51.13102 | 1703 ft | 85 kts | 126° |
| 2026-04-18 08:58 | 43.83805 | 51.13803 | 1996 ft | 86 kts | 128° |
| 2026-04-18 08:58 | 43.83487 | 51.14506 | 2282 ft | 86 kts | 128° |
| 2026-04-18 08:59 | 43.83168 | 51.15198 | 2641 ft | 86 kts | 127° |
| 2026-04-18 08:59 | 43.82848 | 51.15894 | 2905 ft | 85 kts | 128° |
| 2026-04-18 08:59 | 43.82531 | 51.16582 | 3223 ft | 84 kts | 128° |
| 2026-04-18 08:59 | 43.82220 | 51.17251 | 3563 ft | 84 kts | 128° |
| 2026-04-18 09:00 | 43.81903 | 51.17935 | 3900 ft | 85 kts | 129° |
| 2026-04-18 09:00 | 43.81581 | 51.18628 | 4235 ft | 86 kts | 129° |
| 2026-04-18 09:00 | 43.81253 | 51.19334 | 4594 ft | 86 kts | 129° |
| 2026-04-18 09:00 | 43.80927 | 51.20035 | 4950 ft | 87 kts | 130° |
| 2026-04-18 09:01 | 43.80603 | 51.20730 | 5283 ft | 87 kts | 130° |
| 2026-04-18 09:01 | 43.80274 | 51.21438 | 5600 ft | 87 kts | 130° |
| 2026-04-18 09:01 | 43.79944 | 51.22149 | 5922 ft | 88 kts | 130° |
| 2026-04-18 09:01 | 43.79610 | 51.22866 | 6241 ft | 89 kts | 130° |
| 2026-04-18 09:02 | 43.79276 | 51.23585 | 6580 ft | 89 kts | 130° |
| 2026-04-18 09:02 | 43.78936 | 51.24315 | 6869 ft | 92 kts | 130° |
| 2026-04-18 09:02 | 43.78585 | 51.25067 | 7153 ft | 94 kts | 130° |
| 2026-04-18 09:02 | 43.78231 | 51.25829 | 7420 ft | 95 kts | 130° |
| 2026-04-18 09:03 | 43.77874 | 51.26594 | 7712 ft | 96 kts | 130° |
| 2026-04-18 09:03 | 43.77511 | 51.27374 | 7994 ft | 97 kts | 130° |
| 2026-04-18 09:03 | 43.77143 | 51.28162 | 8274 ft | 98 kts | 129° |
| 2026-04-18 09:03 | 43.76773 | 51.28960 | 8557 ft | 99 kts | 129° |
| 2026-04-18 09:04 | 43.76398 | 51.29765 | 8841 ft | 100 kts | 129° |
| 2026-04-18 09:04 | 43.76017 | 51.30579 | 9143 ft | 102 kts | 130° |
| 2026-04-18 09:04 | 43.75630 | 51.31407 | 9439 ft | 103 kts | 129° |
| 2026-04-18 09:04 | 43.75238 | 51.32247 | 9730 ft | 105 kts | 130° |
| 2026-04-18 09:05 | 43.74841 | 51.33095 | 10022 ft | 105 kts | 130° |
| 2026-04-18 09:05 | 43.74442 | 51.33950 | 10277 ft | 107 kts | 129° |
| 2026-04-18 09:05 | 43.74035 | 51.34824 | 10532 ft | 109 kts | 130° |
| 2026-04-18 09:05 | 43.73618 | 51.35714 | 10800 ft | 111 kts | 129° |
| 2026-04-18 09:06 | 43.73195 | 51.36620 | 11071 ft | 113 kts | 129° |
| 2026-04-18 09:06 | 43.72764 | 51.37544 | 11333 ft | 115 kts | 128° |
| 2026-04-18 09:06 | 43.72324 | 51.38484 | 11589 ft | 118 kts | 127° |
| 2026-04-18 09:06 | 43.71876 | 51.39443 | 11859 ft | 120 kts | 128° |
| 2026-04-18 09:07 | 43.71419 | 51.40418 | 12124 ft | 122 kts | 128° |
| 2026-04-18 09:07 | 43.70955 | 51.41409 | 12396 ft | 124 kts | 127° |
| 2026-04-18 09:07 | 43.70482 | 51.42420 | 12657 ft | 126 kts | 127° |
| 2026-04-18 09:07 | 43.69953 | 51.43389 | 12924 ft | 126 kts | 144° |
| 2026-04-18 09:08 | 43.69170 | 51.43907 | 13093 ft | 132 kts | 175° |
| 2026-04-18 09:08 | 43.68194 | 51.44023 | 13087 ft | 150 kts | 180° |
| 2026-04-18 09:08 | 43.67103 | 51.44122 | 13087 ft | 164 kts | 180° |
| 2026-04-18 09:08 | 43.65932 | 51.44239 | 13089 ft | 173 kts | 179° |
| 2026-04-18 09:09 | 43.64734 | 51.44363 | 13085 ft | 176 kts | 179° |
| 2026-04-18 09:09 | 43.63515 | 51.44490 | 13085 ft | 176 kts | 178° |
| 2026-04-18 09:09 | 43.62295 | 51.44616 | 13090 ft | 175 kts | 179° |
| 2026-04-18 09:09 | 43.61079 | 51.44742 | 13089 ft | 175 kts | 179° |
| 2026-04-18 09:10 | 43.59866 | 51.44866 | 13089 ft | 174 kts | 179° |
| 2026-04-18 09:10 | 43.58658 | 51.44990 | 13088 ft | 174 kts | 179° |
| 2026-04-18 09:10 | 43.57448 | 51.45113 | 13087 ft | 174 kts | 179° |
| 2026-04-18 09:10 | 43.56237 | 51.45236 | 13088 ft | 175 kts | 179° |
| 2026-04-18 09:11 | 43.55024 | 51.45360 | 13090 ft | 175 kts | 179° |
| 2026-04-18 09:11 | 43.53812 | 51.45486 | 13091 ft | 174 kts | 179° |
| 2026-04-18 09:11 | 43.52602 | 51.45608 | 13087 ft | 174 kts | 178° |
| 2026-04-18 09:11 | 43.51394 | 51.45730 | 13086 ft | 174 kts | 178° |
| 2026-04-18 09:12 | 43.50593 | 51.45812 | 13089 ft | 174 kts | 179° |
| 2026-04-18 09:12 | 43.49385 | 51.45935 | 13088 ft | 174 kts | 179° |
| 2026-04-18 09:12 | 43.48171 | 51.46058 | 13086 ft | 174 kts | 179° |
| 2026-04-18 09:12 | 43.46568 | 51.46220 | 13088 ft | 175 kts | 179° |
| 2026-04-18 09:13 | 43.45356 | 51.46343 | 13087 ft | 175 kts | 179° |
| 2026-04-18 09:13 | 43.44536 | 51.46427 | 13087 ft | 175 kts | 179° |
| 2026-04-18 09:13 | 43.43325 | 51.46550 | 13086 ft | 175 kts | 179° |
| 2026-04-18 09:13 | 43.41718 | 51.46714 | 13086 ft | 175 kts | 179° |
| 2026-04-18 09:14 | 43.40912 | 51.46794 | 13086 ft | 175 kts | 179° |
| 2026-04-18 09:14 | 43.39695 | 51.46918 | 13085 ft | 176 kts | 179° |
| 2026-04-18 09:14 | 43.38472 | 51.47042 | 13085 ft | 176 kts | 179° |
| 2026-04-18 09:14 | 43.37252 | 51.47167 | 13085 ft | 176 kts | 179° |
| 2026-04-18 09:15 | 43.36032 | 51.47289 | 13084 ft | 176 kts | 179° |
| 2026-04-18 09:15 | 43.34813 | 51.47413 | 13085 ft | 175 kts | 179° |
| 2026-04-18 09:15 | 43.33597 | 51.47536 | 13084 ft | 175 kts | 179° |
| 2026-04-18 09:15 | 43.32379 | 51.47659 | 13082 ft | 176 kts | 179° |
| 2026-04-18 09:16 | 43.31161 | 51.47783 | 13082 ft | 175 kts | 179° |
| 2026-04-18 09:16 | 43.29947 | 51.47906 | 13085 ft | 175 kts | 179° |
| 2026-04-18 09:16 | 43.28728 | 51.48027 | 13083 ft | 176 kts | 179° |
| 2026-04-18 09:16 | 43.27509 | 51.48151 | 13086 ft | 175 kts | 179° |
| 2026-04-18 09:17 | 43.26296 | 51.48274 | 13084 ft | 174 kts | 179° |
| 2026-04-18 09:17 | 43.25087 | 51.48396 | 13087 ft | 175 kts | 179° |
| 2026-04-18 09:17 | 43.23889 | 51.48516 | 13079 ft | 174 kts | 179° |
| 2026-04-18 09:17 | 43.22680 | 51.48639 | 13085 ft | 174 kts | 179° |
| 2026-04-18 09:18 | 43.21468 | 51.48761 | 13081 ft | 175 kts | 179° |
| 2026-04-18 09:18 | 43.20253 | 51.48883 | 13083 ft | 175 kts | 179° |
| 2026-04-18 09:18 | 43.19036 | 51.49004 | 13083 ft | 175 kts | 179° |
| 2026-04-18 09:18 | 43.17816 | 51.49129 | 13086 ft | 176 kts | 179° |
| 2026-04-18 09:19 | 43.16590 | 51.49251 | 13090 ft | 178 kts | 179° |
| 2026-04-18 09:19 | 43.15348 | 51.49377 | 13083 ft | 178 kts | 179° |
| 2026-04-18 09:19 | 43.14114 | 51.49502 | 13085 ft | 177 kts | 180° |
| 2026-04-18 09:19 | 43.12882 | 51.49627 | 13087 ft | 177 kts | 180° |
| 2026-04-18 09:20 | 43.11657 | 51.49748 | 13086 ft | 176 kts | 179° |
| 2026-04-18 09:20 | 43.10455 | 51.50131 | 13083 ft | 179 kts | 163° |
| 2026-04-18 09:20 | 43.09289 | 51.50734 | 13081 ft | 179 kts | 162° |
| 2026-04-18 09:20 | 43.08125 | 51.51346 | 13080 ft | 179 kts | 162° |
| 2026-04-18 09:21 | 43.06958 | 51.51959 | 13078 ft | 180 kts | 162° |
| 2026-04-18 09:21 | 43.05788 | 51.52570 | 13083 ft | 180 kts | 162° |
| 2026-04-18 09:21 | 43.04637 | 51.53170 | 13084 ft | 180 kts | 163° |
| 2026-04-18 09:21 | 43.03469 | 51.53779 | 13085 ft | 180 kts | 163° |
| 2026-04-18 09:22 | 43.02301 | 51.54389 | 13085 ft | 180 kts | 163° |
| 2026-04-18 09:22 | 43.01134 | 51.54996 | 13088 ft | 180 kts | 162° |
| 2026-04-18 09:22 | 42.99966 | 51.55606 | 13085 ft | 180 kts | 162° |
| 2026-04-18 09:22 | 42.98800 | 51.56213 | 13086 ft | 179 kts | 162° |
| 2026-04-18 09:23 | 42.97633 | 51.56819 | 13083 ft | 179 kts | 162° |
| 2026-04-18 09:23 | 42.96468 | 51.57426 | 13084 ft | 179 kts | 162° |
| 2026-04-18 09:23 | 42.95303 | 51.58031 | 13085 ft | 179 kts | 163° |
| 2026-04-18 09:23 | 42.94139 | 51.58637 | 13085 ft | 179 kts | 162° |
| 2026-04-18 09:24 | 42.92972 | 51.59243 | 13083 ft | 179 kts | 162° |
| 2026-04-18 09:24 | 42.91809 | 51.59848 | 13084 ft | 179 kts | 162° |
| 2026-04-18 09:24 | 42.90643 | 51.60453 | 13085 ft | 179 kts | 163° |
| 2026-04-18 09:24 | 42.89476 | 51.61057 | 13088 ft | 179 kts | 162° |
| 2026-04-18 09:25 | 42.88309 | 51.61663 | 13086 ft | 180 kts | 163° |
| 2026-04-18 09:25 | 42.87142 | 51.62269 | 13084 ft | 180 kts | 163° |
| 2026-04-18 09:25 | 42.85973 | 51.62875 | 13085 ft | 180 kts | 162° |
| 2026-04-18 09:25 | 42.84802 | 51.63481 | 13084 ft | 180 kts | 163° |
| 2026-04-18 09:26 | 42.83635 | 51.64086 | 13083 ft | 179 kts | 162° |
| 2026-04-18 09:26 | 42.82483 | 51.64681 | 13082 ft | 179 kts | 162° |
| 2026-04-18 09:26 | 42.81313 | 51.65287 | 13081 ft | 179 kts | 162° |
| 2026-04-18 09:26 | 42.80146 | 51.65890 | 13084 ft | 179 kts | 163° |
| 2026-04-18 09:27 | 42.78981 | 51.66494 | 13084 ft | 179 kts | 163° |
| 2026-04-18 09:27 | 42.77812 | 51.67098 | 13085 ft | 179 kts | 162° |
| 2026-04-18 09:27 | 42.76646 | 51.67700 | 13080 ft | 180 kts | 163° |
| 2026-04-18 09:27 | 42.75478 | 51.68304 | 13083 ft | 180 kts | 163° |
| 2026-04-18 09:28 | 42.74309 | 51.68907 | 13081 ft | 180 kts | 162° |
| 2026-04-18 09:28 | 42.73141 | 51.69510 | 13081 ft | 180 kts | 163° |
| 2026-04-18 09:28 | 42.71973 | 51.70112 | 13084 ft | 180 kts | 162° |
| 2026-04-18 09:28 | 42.70802 | 51.70716 | 13083 ft | 180 kts | 163° |
| 2026-04-18 09:29 | 42.69632 | 51.71319 | 13086 ft | 180 kts | 162° |
| 2026-04-18 09:29 | 42.68458 | 51.71923 | 13082 ft | 180 kts | 162° |
| 2026-04-18 09:29 | 42.67285 | 51.72527 | 13085 ft | 180 kts | 163° |
| 2026-04-18 09:29 | 42.66112 | 51.73131 | 13084 ft | 180 kts | 163° |
| 2026-04-18 09:30 | 42.64939 | 51.73735 | 13084 ft | 180 kts | 163° |
| 2026-04-18 09:30 | 42.63783 | 51.74331 | 13084 ft | 180 kts | 163° |
| 2026-04-18 09:30 | 42.62597 | 51.74940 | 13078 ft | 180 kts | 162° |
| 2026-04-18 09:30 | 42.61441 | 51.75533 | 13079 ft | 180 kts | 163° |
| 2026-04-18 09:31 | 42.60271 | 51.76134 | 13079 ft | 180 kts | 162° |
| 2026-04-18 09:31 | 42.59102 | 51.76735 | 13081 ft | 180 kts | 163° |
| 2026-04-18 09:31 | 42.57932 | 51.77336 | 13082 ft | 180 kts | 163° |
| 2026-04-18 09:31 | 42.56762 | 51.77935 | 13083 ft | 180 kts | 163° |
| 2026-04-18 09:32 | 42.55588 | 51.78535 | 13083 ft | 180 kts | 163° |
| 2026-04-18 09:32 | 42.54417 | 51.79134 | 13080 ft | 180 kts | 163° |
| 2026-04-18 09:32 | 42.53244 | 51.79733 | 13079 ft | 180 kts | 162° |
| 2026-04-18 09:32 | 42.52068 | 51.80333 | 13079 ft | 180 kts | 163° |
| 2026-04-18 09:33 | 42.50895 | 51.80932 | 13078 ft | 180 kts | 163° |
| 2026-04-18 09:33 | 42.49722 | 51.81530 | 13080 ft | 180 kts | 163° |
| 2026-04-18 09:33 | 42.48548 | 51.82129 | 13077 ft | 180 kts | 163° |
| 2026-04-18 09:33 | 42.47391 | 51.82720 | 13082 ft | 180 kts | 163° |
| 2026-04-18 09:34 | 42.46218 | 51.83318 | 13081 ft | 180 kts | 163° |
| 2026-04-18 09:34 | 42.45041 | 51.83916 | 13079 ft | 180 kts | 163° |
| 2026-04-18 09:34 | 42.43868 | 51.84515 | 13078 ft | 180 kts | 163° |
| 2026-04-18 09:34 | 42.42689 | 51.85115 | 13077 ft | 180 kts | 163° |
| 2026-04-18 09:35 | 42.41515 | 51.85712 | 13077 ft | 180 kts | 163° |
| 2026-04-18 09:35 | 42.40340 | 51.86310 | 13078 ft | 180 kts | 163° |
| 2026-04-18 09:35 | 42.39164 | 51.86908 | 13079 ft | 180 kts | 163° |
| 2026-04-18 09:35 | 42.37992 | 51.87504 | 13078 ft | 180 kts | 163° |
| 2026-04-18 09:36 | 42.36833 | 51.88093 | 13080 ft | 180 kts | 163° |
| 2026-04-18 09:36 | 42.35643 | 51.88696 | 13081 ft | 181 kts | 163° |
| 2026-04-18 09:36 | 42.34481 | 51.89286 | 13079 ft | 180 kts | 163° |
| 2026-04-18 09:36 | 42.33306 | 51.89883 | 13079 ft | 180 kts | 163° |
| 2026-04-18 09:37 | 42.32131 | 51.90479 | 13079 ft | 180 kts | 164° |
| 2026-04-18 09:37 | 42.30955 | 51.91075 | 13080 ft | 180 kts | 164° |
| 2026-04-18 09:37 | 42.29779 | 51.91672 | 13079 ft | 180 kts | 163° |
| 2026-04-18 09:37 | 42.28604 | 51.92267 | 13078 ft | 180 kts | 164° |
| 2026-04-18 09:38 | 42.27427 | 51.92863 | 13076 ft | 180 kts | 163° |
| 2026-04-18 09:38 | 42.26251 | 51.93459 | 13078 ft | 180 kts | 163° |
| 2026-04-18 09:38 | 42.25074 | 51.94054 | 13081 ft | 180 kts | 163° |
| 2026-04-18 09:38 | 42.23898 | 51.94649 | 13081 ft | 180 kts | 164° |
| 2026-04-18 09:39 | 42.22721 | 51.95245 | 13079 ft | 181 kts | 164° |
| 2026-04-18 09:39 | 42.21543 | 51.95839 | 13081 ft | 181 kts | 163° |
| 2026-04-18 09:39 | 42.20365 | 51.96434 | 13079 ft | 181 kts | 164° |
| 2026-04-18 09:39 | 42.19187 | 51.97029 | 13078 ft | 181 kts | 165° |
| 2026-04-18 09:40 | 42.18024 | 51.97616 | 13077 ft | 180 kts | 163° |
| 2026-04-18 09:40 | 42.16848 | 51.98209 | 13079 ft | 181 kts | 164° |
| 2026-04-18 09:40 | 42.15671 | 51.98803 | 13081 ft | 181 kts | 164° |
| 2026-04-18 09:40 | 42.14493 | 51.99398 | 13082 ft | 181 kts | 164° |
| 2026-04-18 09:41 | 42.13313 | 51.99993 | 13082 ft | 181 kts | 163° |
| 2026-04-18 09:41 | 42.12135 | 52.00587 | 13082 ft | 181 kts | 163° |
| 2026-04-18 09:41 | 42.10955 | 52.01180 | 13080 ft | 181 kts | 164° |
| 2026-04-18 09:41 | 42.09774 | 52.01775 | 13083 ft | 181 kts | 163° |
| 2026-04-18 09:42 | 42.08592 | 52.02370 | 13085 ft | 181 kts | 164° |
| 2026-04-18 09:42 | 42.07412 | 52.02963 | 13085 ft | 181 kts | 164° |
| 2026-04-18 09:42 | 42.06231 | 52.03556 | 13079 ft | 181 kts | 163° |
| 2026-04-18 09:42 | 42.05047 | 52.04151 | 13080 ft | 181 kts | 164° |
| 2026-04-18 09:43 | 42.03865 | 52.04745 | 13083 ft | 181 kts | 163° |
| 2026-04-18 09:43 | 42.02682 | 52.05340 | 13086 ft | 181 kts | 164° |
| 2026-04-18 09:43 | 42.01498 | 52.05935 | 13084 ft | 182 kts | 164° |
| 2026-04-18 09:43 | 42.00330 | 52.06520 | 13083 ft | 181 kts | 163° |
| 2026-04-18 09:44 | 41.99132 | 52.07122 | 13088 ft | 182 kts | 163° |
| 2026-04-18 09:44 | 41.97948 | 52.07716 | 13088 ft | 182 kts | 164° |
| 2026-04-18 09:44 | 41.96780 | 52.08301 | 13087 ft | 182 kts | 164° |
| 2026-04-18 09:44 | 41.95598 | 52.08894 | 13084 ft | 182 kts | 164° |
| 2026-04-18 09:45 | 41.94413 | 52.09487 | 13085 ft | 182 kts | 163° |
| 2026-04-18 09:45 | 41.93227 | 52.10080 | 13084 ft | 182 kts | 164° |
| 2026-04-18 09:45 | 41.92042 | 52.10673 | 13088 ft | 182 kts | 164° |
| 2026-04-18 09:45 | 41.90855 | 52.11267 | 13085 ft | 182 kts | 164° |
| 2026-04-18 09:46 | 41.89668 | 52.11861 | 13085 ft | 182 kts | 164° |
| 2026-04-18 09:46 | 41.88481 | 52.12454 | 13085 ft | 182 kts | 164° |
| 2026-04-18 09:46 | 41.87293 | 52.13047 | 13089 ft | 182 kts | 164° |
| 2026-04-18 09:46 | 41.86107 | 52.13640 | 13087 ft | 182 kts | 164° |
| 2026-04-18 09:47 | 41.84917 | 52.14233 | 13091 ft | 182 kts | 164° |
| 2026-04-18 09:47 | 41.83728 | 52.14827 | 13090 ft | 182 kts | 163° |
| 2026-04-18 09:47 | 41.82540 | 52.15421 | 13088 ft | 182 kts | 164° |
| 2026-04-18 09:47 | 41.81349 | 52.16014 | 13084 ft | 182 kts | 163° |
| 2026-04-18 09:48 | 41.80159 | 52.16606 | 13086 ft | 182 kts | 164° |
| 2026-04-18 09:48 | 41.78969 | 52.17201 | 13085 ft | 182 kts | 164° |
| 2026-04-18 09:48 | 41.77779 | 52.17794 | 13092 ft | 182 kts | 163° |
| 2026-04-18 09:48 | 41.76589 | 52.18387 | 13091 ft | 182 kts | 163° |
| 2026-04-18 09:49 | 41.75398 | 52.18979 | 13090 ft | 182 kts | 164° |
| 2026-04-18 09:49 | 41.74206 | 52.19572 | 13089 ft | 183 kts | 163° |
| 2026-04-18 09:49 | 41.73014 | 52.20164 | 13087 ft | 183 kts | 163° |
| 2026-04-18 09:49 | 41.71823 | 52.20756 | 13088 ft | 183 kts | 163° |
| 2026-04-18 09:50 | 41.70633 | 52.21348 | 13088 ft | 183 kts | 163° |
| 2026-04-18 09:50 | 41.69455 | 52.21934 | 13087 ft | 183 kts | 163° |
| 2026-04-18 09:50 | 41.68262 | 52.22526 | 13088 ft | 183 kts | 163° |
| 2026-04-18 09:50 | 41.67068 | 52.23119 | 13086 ft | 183 kts | 164° |
| 2026-04-18 09:51 | 41.65872 | 52.23712 | 13089 ft | 183 kts | 164° |
| 2026-04-18 09:51 | 41.64675 | 52.24305 | 13087 ft | 183 kts | 163° |
| 2026-04-18 09:51 | 41.63476 | 52.24900 | 13086 ft | 184 kts | 163° |
| 2026-04-18 09:51 | 41.62279 | 52.25494 | 13086 ft | 184 kts | 163° |
| 2026-04-18 09:52 | 41.61081 | 52.26087 | 13086 ft | 184 kts | 163° |
| 2026-04-18 09:52 | 41.59880 | 52.26681 | 13086 ft | 184 kts | 163° |
| 2026-04-18 09:52 | 41.58681 | 52.27275 | 13088 ft | 184 kts | 164° |
| 2026-04-18 09:52 | 41.57482 | 52.27868 | 13088 ft | 184 kts | 163° |
| 2026-04-18 09:53 | 41.56281 | 52.28462 | 13086 ft | 184 kts | 163° |
| 2026-04-18 09:53 | 41.55096 | 52.29048 | 13086 ft | 184 kts | 164° |
| 2026-04-18 09:53 | 41.53895 | 52.29641 | 13084 ft | 184 kts | 163° |
| 2026-04-18 09:53 | 41.52697 | 52.30232 | 13083 ft | 184 kts | 163° |
| 2026-04-18 09:54 | 41.51495 | 52.30826 | 13082 ft | 184 kts | 163° |
| 2026-04-18 09:54 | 41.50295 | 52.31420 | 13082 ft | 184 kts | 163° |
| 2026-04-18 09:54 | 41.49094 | 52.32013 | 13082 ft | 184 kts | 163° |
| 2026-04-18 09:54 | 41.47890 | 52.32607 | 13080 ft | 184 kts | 163° |
| 2026-04-18 09:55 | 41.46687 | 52.33199 | 13081 ft | 184 kts | 163° |
| 2026-04-18 09:55 | 41.45484 | 52.33792 | 13080 ft | 184 kts | 163° |
| 2026-04-18 09:55 | 41.44282 | 52.34384 | 13080 ft | 184 kts | 163° |
| 2026-04-18 09:55 | 41.43097 | 52.34968 | 13080 ft | 184 kts | 163° |
| 2026-04-18 09:56 | 41.41879 | 52.35567 | 13081 ft | 184 kts | 163° |
| 2026-04-18 09:56 | 41.40693 | 52.36151 | 13084 ft | 184 kts | 163° |
| 2026-04-18 09:56 | 41.39492 | 52.36742 | 13080 ft | 184 kts | 163° |
| 2026-04-18 09:56 | 41.38287 | 52.37334 | 13085 ft | 184 kts | 163° |
| 2026-04-18 09:57 | 41.37087 | 52.37924 | 13081 ft | 184 kts | 163° |
| 2026-04-18 09:57 | 41.35886 | 52.38514 | 13081 ft | 184 kts | 163° |
| 2026-04-18 09:57 | 41.34683 | 52.39105 | 13084 ft | 184 kts | 163° |
| 2026-04-18 09:57 | 41.33483 | 52.39694 | 13080 ft | 184 kts | 163° |
| 2026-04-18 09:58 | 41.32279 | 52.40284 | 13081 ft | 184 kts | 163° |
| 2026-04-18 09:58 | 41.31076 | 52.40875 | 13083 ft | 184 kts | 163° |
| 2026-04-18 09:58 | 41.29873 | 52.41464 | 13082 ft | 184 kts | 163° |
| 2026-04-18 09:58 | 41.28667 | 52.42055 | 13084 ft | 185 kts | 163° |
| 2026-04-18 09:59 | 41.27463 | 52.42645 | 13088 ft | 185 kts | 163° |
| 2026-04-18 09:59 | 41.26664 | 52.43037 | 13082 ft | 185 kts | 163° |
| 2026-04-18 09:59 | 41.25458 | 52.43627 | 13083 ft | 185 kts | 164° |
| 2026-04-18 10:00 | 41.23041 | 52.44810 | 13088 ft | 185 kts | 164° |
| 2026-04-18 10:00 | 41.21831 | 52.45402 | 13085 ft | 185 kts | 164° |
| 2026-04-18 10:00 | 41.20622 | 52.45993 | 13087 ft | 185 kts | 164° |
| 2026-04-18 10:00 | 41.19413 | 52.46584 | 13086 ft | 185 kts | 164° |
| 2026-04-18 10:01 | 41.18203 | 52.47174 | 13085 ft | 185 kts | 164° |
| 2026-04-18 10:01 | 41.16992 | 52.47766 | 13085 ft | 186 kts | 164° |
| 2026-04-18 10:01 | 41.15778 | 52.48358 | 13093 ft | 186 kts | 164° |
| 2026-04-18 10:01 | 41.14564 | 52.48951 | 13084 ft | 186 kts | 164° |
| 2026-04-18 10:02 | 41.13367 | 52.49535 | 13093 ft | 186 kts | 164° |
| 2026-04-18 10:02 | 41.12151 | 52.50127 | 13084 ft | 186 kts | 164° |
| 2026-04-18 10:02 | 41.10937 | 52.50719 | 13087 ft | 186 kts | 164° |
| 2026-04-18 10:02 | 41.09721 | 52.51311 | 13084 ft | 186 kts | 164° |
| 2026-04-18 10:03 | 41.08506 | 52.51903 | 13082 ft | 186 kts | 164° |
| 2026-04-18 10:03 | 41.07291 | 52.52494 | 13081 ft | 186 kts | 164° |
| 2026-04-18 10:03 | 41.06078 | 52.53085 | 13081 ft | 186 kts | 164° |
| 2026-04-18 10:03 | 41.04865 | 52.53674 | 13080 ft | 186 kts | 164° |
| 2026-04-18 10:04 | 41.03651 | 52.54264 | 13079 ft | 186 kts | 164° |
| 2026-04-18 10:04 | 41.02438 | 52.54854 | 13084 ft | 186 kts | 164° |
| 2026-04-18 10:04 | 41.01221 | 52.55445 | 13078 ft | 186 kts | 164° |
| 2026-04-18 10:04 | 41.00010 | 52.56033 | 13077 ft | 186 kts | 164° |
| 2026-04-18 10:05 | 40.98794 | 52.56624 | 13078 ft | 186 kts | 164° |
| 2026-04-18 10:05 | 40.97580 | 52.57213 | 13078 ft | 186 kts | 164° |
| 2026-04-18 10:05 | 40.96365 | 52.57802 | 13074 ft | 186 kts | 164° |
| 2026-04-18 10:05 | 40.95150 | 52.58391 | 13074 ft | 186 kts | 164° |
| 2026-04-18 10:06 | 40.93936 | 52.58979 | 13076 ft | 186 kts | 164° |
| 2026-04-18 10:06 | 40.92738 | 52.59560 | 13072 ft | 186 kts | 164° |
| 2026-04-18 10:06 | 40.91524 | 52.60148 | 13079 ft | 186 kts | 164° |
| 2026-04-18 10:06 | 40.90309 | 52.60735 | 13074 ft | 186 kts | 164° |
| 2026-04-18 10:07 | 40.89093 | 52.61316 | 13079 ft | 186 kts | 164° |
| 2026-04-18 10:07 | 40.87877 | 52.61889 | 13074 ft | 186 kts | 164° |
| 2026-04-18 10:07 | 40.86658 | 52.62465 | 13054 ft | 186 kts | 164° |
| 2026-04-18 10:07 | 40.85442 | 52.63036 | 12877 ft | 185 kts | 165° |
| 2026-04-18 10:08 | 40.84233 | 52.63607 | 12684 ft | 184 kts | 164° |
| 2026-04-18 10:08 | 40.83029 | 52.64178 | 12490 ft | 183 kts | 164° |
| 2026-04-18 10:08 | 40.81826 | 52.64748 | 12299 ft | 183 kts | 164° |
| 2026-04-18 10:08 | 40.80632 | 52.65314 | 12102 ft | 182 kts | 164° |
| 2026-04-18 10:09 | 40.79442 | 52.65878 | 11907 ft | 181 kts | 164° |
| 2026-04-18 10:09 | 40.78257 | 52.66437 | 11717 ft | 181 kts | 164° |
| 2026-04-18 10:09 | 40.77074 | 52.66996 | 11526 ft | 180 kts | 164° |
| 2026-04-18 10:09 | 40.75898 | 52.67550 | 11335 ft | 179 kts | 164° |
| 2026-04-18 10:10 | 40.74727 | 52.68103 | 11148 ft | 178 kts | 164° |
| 2026-04-18 10:10 | 40.73575 | 52.68646 | 10959 ft | 178 kts | 164° |
| 2026-04-18 10:10 | 40.72412 | 52.69194 | 10766 ft | 177 kts | 164° |
| 2026-04-18 10:10 | 40.71255 | 52.69739 | 10579 ft | 176 kts | 164° |
| 2026-04-18 10:11 | 40.70104 | 52.70282 | 10391 ft | 175 kts | 164° |
| 2026-04-18 10:11 | 40.68955 | 52.70823 | 10208 ft | 175 kts | 164° |
| 2026-04-18 10:11 | 40.67813 | 52.71360 | 10020 ft | 174 kts | 164° |
| 2026-04-18 10:11 | 40.66676 | 52.71895 | 9825 ft | 173 kts | 164° |
| 2026-04-18 10:12 | 40.65549 | 52.72425 | 9637 ft | 171 kts | 164° |
| 2026-04-18 10:12 | 40.64438 | 52.72948 | 9459 ft | 169 kts | 164° |
| 2026-04-18 10:12 | 40.63335 | 52.73466 | 9281 ft | 167 kts | 164° |
| 2026-04-18 10:12 | 40.62249 | 52.73976 | 9106 ft | 165 kts | 163° |
| 2026-04-18 10:13 | 40.61175 | 52.74481 | 8932 ft | 163 kts | 163° |
| 2026-04-18 10:13 | 40.60125 | 52.74974 | 8758 ft | 161 kts | 163° |
| 2026-04-18 10:13 | 40.59074 | 52.75467 | 8584 ft | 160 kts | 163° |
| 2026-04-18 10:13 | 40.58030 | 52.75957 | 8418 ft | 158 kts | 163° |
| 2026-04-18 10:14 | 40.56994 | 52.76444 | 8250 ft | 157 kts | 163° |
| 2026-04-18 10:14 | 40.55969 | 52.76924 | 8083 ft | 156 kts | 163° |
| 2026-04-18 10:14 | 40.54948 | 52.77402 | 7926 ft | 157 kts | 162° |
| 2026-04-18 10:14 | 40.53928 | 52.77970 | 7749 ft | 160 kts | 160° |
| 2026-04-18 10:15 | 40.52894 | 52.78515 | 7576 ft | 159 kts | 161° |
| 2026-04-18 10:15 | 40.51874 | 52.79055 | 7408 ft | 157 kts | 160° |
| 2026-04-18 10:15 | 40.50866 | 52.79595 | 7239 ft | 156 kts | 159° |
| 2026-04-18 10:15 | 40.49869 | 52.80130 | 7077 ft | 154 kts | 160° |
| 2026-04-18 10:16 | 40.48880 | 52.80663 | 6913 ft | 153 kts | 159° |
| 2026-04-18 10:16 | 40.47902 | 52.81188 | 6751 ft | 151 kts | 159° |
| 2026-04-18 10:16 | 40.46933 | 52.81710 | 6592 ft | 149 kts | 159° |
| 2026-04-18 10:16 | 40.45978 | 52.82223 | 6433 ft | 147 kts | 159° |
| 2026-04-18 10:17 | 40.45039 | 52.82726 | 6272 ft | 144 kts | 158° |
| 2026-04-18 10:17 | 40.44117 | 52.83221 | 6123 ft | 142 kts | 158° |
| 2026-04-18 10:17 | 40.43203 | 52.83711 | 5971 ft | 142 kts | 158° |
| 2026-04-18 10:17 | 40.42295 | 52.84199 | 5817 ft | 143 kts | 158° |
| 2026-04-18 10:18 | 40.41368 | 52.84696 | 5665 ft | 144 kts | 157° |
| 2026-04-18 10:18 | 40.40441 | 52.85195 | 5511 ft | 144 kts | 157° |
| 2026-04-18 10:18 | 40.39519 | 52.85688 | 5360 ft | 142 kts | 157° |
| 2026-04-18 10:18 | 40.38599 | 52.86178 | 5207 ft | 143 kts | 156° |
| 2026-04-18 10:19 | 40.37678 | 52.86673 | 5055 ft | 143 kts | 156° |
| 2026-04-18 10:19 | 40.36753 | 52.87171 | 4856 ft | 146 kts | 156° |
| 2026-04-18 10:19 | 40.35816 | 52.87672 | 4686 ft | 144 kts | 156° |
| 2026-04-18 10:19 | 40.34894 | 52.88163 | 4534 ft | 143 kts | 156° |
| 2026-04-18 10:20 | 40.33977 | 52.88655 | 4364 ft | 142 kts | 156° |
| 2026-04-18 10:20 | 40.33063 | 52.89143 | 4229 ft | 142 kts | 156° |
| 2026-04-18 10:20 | 40.32151 | 52.89632 | 4077 ft | 141 kts | 156° |
| 2026-04-18 10:20 | 40.31247 | 52.90115 | 3929 ft | 140 kts | 156° |
| 2026-04-18 10:21 | 40.30342 | 52.90599 | 3774 ft | 140 kts | 156° |
| 2026-04-18 10:21 | 40.29444 | 52.91076 | 3629 ft | 139 kts | 156° |
| 2026-04-18 10:21 | 40.28544 | 52.91558 | 3480 ft | 141 kts | 156° |
| 2026-04-18 10:21 | 40.27638 | 52.92043 | 3327 ft | 140 kts | 156° |
| 2026-04-18 10:22 | 40.26738 | 52.92524 | 3176 ft | 139 kts | 156° |
| 2026-04-18 10:22 | 40.25861 | 52.92994 | 3033 ft | 138 kts | 156° |
| 2026-04-18 10:22 | 40.24964 | 52.93470 | 2890 ft | 140 kts | 157° |
| 2026-04-18 10:22 | 40.24048 | 52.93946 | 2724 ft | 141 kts | 156° |
| 2026-04-18 10:23 | 40.23154 | 52.94406 | 2599 ft | 137 kts | 158° |
| 2026-04-18 10:23 | 40.22263 | 52.94874 | 2440 ft | 138 kts | 158° |
| 2026-04-18 10:23 | 40.21366 | 52.95351 | 2288 ft | 140 kts | 157° |
| 2026-04-18 10:23 | 40.20460 | 52.95827 | 2141 ft | 141 kts | 157° |
| 2026-04-18 10:24 | 40.19542 | 52.96330 | 1983 ft | 145 kts | 153° |
| 2026-04-18 10:24 | 40.18588 | 52.96776 | 1908 ft | 144 kts | 163° |
| 2026-04-18 10:24 | 40.17631 | 52.97105 | 1892 ft | 140 kts | 165° |
| 2026-04-18 10:24 | 40.16722 | 52.97402 | 1883 ft | 127 kts | 165° |
| 2026-04-18 10:25 | 40.15885 | 52.97615 | 1714 ft | 120 kts | 171° |
| 2026-04-18 10:25 | 40.15097 | 52.97755 | 1615 ft | 109 kts | 169° |
| 2026-04-18 10:25 | 40.14427 | 52.97944 | 1541 ft | 93 kts | 168° |
| 2026-04-18 10:25 | 40.13792 | 52.98163 | 1360 ft | 95 kts | 163° |
| 2026-04-18 10:26 | 40.13164 | 52.98367 | 1217 ft | 93 kts | 163° |
| 2026-04-18 10:26 | 40.12539 | 52.98581 | 1097 ft | 93 kts | 166° |
| 2026-04-18 10:26 | 40.11908 | 52.98748 | 1016 ft | 91 kts | 168° |
| 2026-04-18 10:26 | 40.11285 | 52.98939 | 920 ft | 93 kts | 165° |
| 2026-04-18 10:27 | 40.10669 | 52.99112 | 768 ft | 88 kts | 163° |
| 2026-04-18 10:27 | 40.10086 | 52.99312 | 678 ft | 86 kts | 164° |
| 2026-04-18 10:27 | 40.09503 | 52.99505 | 586 ft | 87 kts | 160° |
| 2026-04-18 10:27 | 40.08914 | 52.99704 | 488 ft | 87 kts | 161° |
| 2026-04-18 10:28 | 40.08322 | 52.99882 | 367 ft | 87 kts | 162° |
| 2026-04-18 10:28 | 40.07743 | 53.00062 | 286 ft | 81 kts | 162° |
| 2026-04-18 10:28 | 40.07275 | 53.00213 | 284 ft | 46 kts | 173° |
| 2026-04-18 10:28 | 40.07123 | 53.00254 | 283 ft | 13 kts | 165° |
| 2026-04-18 10:29 | 40.07035 | 53.00282 | 283 ft | 13 kts | 162° |
| 2026-04-18 10:29 | 40.06952 | 53.00308 | 283 ft | 12 kts | 167° |
| 2026-04-18 10:29 | 40.06866 | 53.00333 | 283 ft | 13 kts | 167° |
| 2026-04-18 10:29 | 40.06769 | 53.00364 | 281 ft | 15 kts | 166° |
| 2026-04-18 10:30 | 40.06662 | 53.00399 | 280 ft | 16 kts | 166° |
| 2026-04-18 10:30 | 40.06551 | 53.00434 | 280 ft | 18 kts | 162° |
| 2026-04-18 10:30 | 40.06418 | 53.00476 | 280 ft | 21 kts | 168° |
| 2026-04-18 10:30 | 40.06266 | 53.00521 | 282 ft | 23 kts | 166° |
| 2026-04-18 10:31 | 40.06103 | 53.00573 | 283 ft | 25 kts | 166° |
| 2026-04-18 10:31 | 40.05936 | 53.00623 | 285 ft | 24 kts | 167° |
| 2026-04-18 10:31 | 40.05774 | 53.00677 | 284 ft | 24 kts | 165° |
| 2026-04-18 10:31 | 40.05614 | 53.00728 | 283 ft | 24 kts | 166° |
| 2026-04-18 10:32 | 40.05453 | 53.00777 | 282 ft | 24 kts | 167° |
| 2026-04-18 10:32 | 40.05296 | 53.00826 | 282 ft | 23 kts | 168° |
| 2026-04-18 10:32 | 40.05152 | 53.00865 | 280 ft | 17 kts | 183° |
| 2026-04-18 10:32 | 40.05049 | 53.00777 | 282 ft | 20 kts | 226° |
| 2026-04-18 10:33 | 40.04933 | 53.00640 | 283 ft | 24 kts | 221° |
| 2026-04-18 10:33 | 40.04817 | 53.00502 | 283 ft | 20 kts | 220° |
| 2026-04-18 10:33 | 40.04717 | 53.00390 | 283 ft | 21 kts | 221° |
| 2026-04-18 10:33 | 40.04594 | 53.00249 | 282 ft | 26 kts | 222° |
| 2026-04-18 10:34 | 40.04457 | 53.00093 | 283 ft | 24 kts | 218° |
| 2026-04-18 10:34 | 40.04335 | 52.99947 | 283 ft | 22 kts | 222° |
| 2026-04-18 10:34 | 40.04255 | 52.99846 | 283 ft | 13 kts | 234° |
| 2026-04-18 10:34 | 40.04225 | 52.99726 | 283 ft | 14 kts | 251° |
| 2026-04-18 10:35 | 40.04296 | 52.99645 | 283 ft | 18 kts | 351° |
| 2026-04-18 10:35 | 40.04329 | 52.99639 | 283 ft | 1 kts | 2° |
| 2026-04-18 10:35 | 40.04361 | 52.99674 | 283 ft | 11 kts | 82° |
| 2026-04-18 10:35 | 40.04376 | 52.99778 | 282 ft | 10 kts | 135° |
| 2026-04-18 10:36 | 40.04317 | 52.99773 | 283 ft | 9 kts | 248° |
| 2026-04-18 10:36 | 40.04310 | 52.99746 | 282 ft | 0 kts | 253° |